sensor_id;sensor_type;location;lat;lon;timestamp;pressure;altitude;pressure_sealevel;temperature;humidity
63111;BME280;49201;53.426;10.300;2022-12-07T00:01:13;101293.41;;;2.95;100.00
63111;BME280;49201;53.426;10.300;2022-12-07T00:03:40;101294.19;;;2.94;100.00
63111;BME280;49201;53.426;10.300;2022-12-07T00:06:07;101293.41;;;2.95;100.00
63111;BME280;49201;53.426;10.300;2022-12-07T00:08:34;101281.69;;;2.97;100.00
63111;BME280;49201;53.426;10.300;2022-12-07T00:11:11;101285.22;;;2.99;100.00
63111;BME280;49201;53.426;10.300;2022-12-07T00:13:37;101273.59;;;3.02;100.00
63111;BME280;49201;53.426;10.300;2022-12-07T00:16:04;101273.69;;;3.04;100.00
63111;BME280;49201;53.426;10.300;2022-12-07T00:18:30;101264.50;;;3.06;100.00
63111;BME280;49201;53.426;10.300;2022-12-07T00:21:17;101270.53;;;3.08;100.00
63111;BME280;49201;53.426;10.300;2022-12-07T00:23:44;101260.50;;;3.09;100.00
63111;BME280;49201;53.426;10.300;2022-12-07T00:26:15;101246.53;;;3.16;100.00
63111;BME280;49201;53.426;10.300;2022-12-07T00:28:41;101252.56;;;3.18;100.00
63111;BME280;49201;53.426;10.300;2022-12-07T00:31:11;101253.50;;;3.20;100.00
63111;BME280;49201;53.426;10.300;2022-12-07T00:33:38;101248.78;;;3.26;100.00
63111;BME280;49201;53.426;10.300;2022-12-07T00:36:06;101249.66;;;3.26;100.00
63111;BME280;49201;53.426;10.300;2022-12-07T00:38:33;101237.88;;;3.27;100.00
63111;BME280;49201;53.426;10.300;2022-12-07T00:41:05;101231.31;;;3.30;100.00
63111;BME280;49201;53.426;10.300;2022-12-07T00:43:31;101231.50;;;3.33;100.00
63111;BME280;49201;53.426;10.300;2022-12-07T00:45:56;101230.88;;;3.37;100.00
63111;BME280;49201;53.426;10.300;2022-12-07T00:48:23;101232.59;;;3.38;100.00
63111;BME280;49201;53.426;10.300;2022-12-07T00:50:48;101230.31;;;3.43;100.00
63111;BME280;49201;53.426;10.300;2022-12-07T00:53:14;101223.69;;;3.45;100.00
63111;BME280;49201;53.426;10.300;2022-12-07T00:55:40;101216.19;;;3.46;100.00
63111;BME280;49201;53.426;10.300;2022-12-07T00:58:06;101221.25;;;3.46;100.00
63111;BME280;49201;53.426;10.300;2022-12-07T01:00:32;101212.06;;;3.48;100.00
63111;BME280;49201;53.426;10.300;2022-12-07T01:02:58;101210.41;;;3.49;100.00
63111;BME280;49201;53.426;10.300;2022-12-07T01:05:24;101200.19;;;3.47;100.00
63111;BME280;49201;53.426;10.300;2022-12-07T01:07:49;101197.66;;;3.47;100.00
63111;BME280;49201;53.426;10.300;2022-12-07T01:10:15;101190.69;;;3.43;100.00
63111;BME280;49201;53.426;10.300;2022-12-07T01:12:40;101192.97;;;3.39;100.00
63111;BME280;49201;53.426;10.300;2022-12-07T01:15:07;101187.91;;;3.39;100.00
63111;BME280;49201;53.426;10.300;2022-12-07T01:17:33;101190.38;;;3.37;100.00
63111;BME280;49201;53.426;10.300;2022-12-07T01:19:58;101187.91;;;3.39;100.00
63111;BME280;49201;53.426;10.300;2022-12-07T01:22:23;101194.75;;;3.40;100.00
63111;BME280;49201;53.426;10.300;2022-12-07T01:24:49;101197.41;;;3.43;100.00
63111;BME280;49201;53.426;10.300;2022-12-07T01:27:15;101188.34;;;3.46;100.00
63111;BME280;49201;53.426;10.300;2022-12-07T01:29:40;101187.63;;;3.49;100.00
63111;BME280;49201;53.426;10.300;2022-12-07T01:32:06;101187.78;;;3.52;100.00
63111;BME280;49201;53.426;10.300;2022-12-07T01:34:31;101180.09;;;3.50;100.00
63111;BME280;49201;53.426;10.300;2022-12-07T01:36:57;101173.06;;;3.45;100.00
63111;BME280;49201;53.426;10.300;2022-12-07T01:39:23;101177.25;;;3.44;100.00
63111;BME280;49201;53.426;10.300;2022-12-07T01:41:48;101174.72;;;3.44;100.00
63111;BME280;49201;53.426;10.300;2022-12-07T01:44:20;101167.03;;;3.43;100.00
63111;BME280;49201;53.426;10.300;2022-12-07T01:46:49;101173.94;;;3.45;100.00
63111;BME280;49201;53.426;10.300;2022-12-07T01:49:18;101169.97;;;3.50;100.00
63111;BME280;49201;53.426;10.300;2022-12-07T01:51:47;101171.78;;;3.53;100.00
63111;BME280;49201;53.426;10.300;2022-12-07T01:54:14;101166.00;;;3.55;100.00
63111;BME280;49201;53.426;10.300;2022-12-07T01:56:45;101173.78;;;3.58;100.00
63111;BME280;49201;53.426;10.300;2022-12-07T01:59:13;101170.44;;;3.59;100.00
63111;BME280;49201;53.426;10.300;2022-12-07T02:01:38;101167.22;;;3.62;100.00
63111;BME280;49201;53.426;10.300;2022-12-07T02:04:04;101163.13;;;3.64;100.00
63111;BME280;49201;53.426;10.300;2022-12-07T02:06:31;101158.28;;;3.68;100.00
63111;BME280;49201;53.426;10.300;2022-12-07T02:08:56;101160.97;;;3.71;100.00
63111;BME280;49201;53.426;10.300;2022-12-07T02:11:22;101151.56;;;3.69;100.00
63111;BME280;49201;53.426;10.300;2022-12-07T02:13:48;101155.44;;;3.62;100.00
63111;BME280;49201;53.426;10.300;2022-12-07T02:29:35;101143.41;;;3.74;100.00
63111;BME280;49201;53.426;10.300;2022-12-07T02:32:16;101144.19;;;3.73;100.00
63111;BME280;49201;53.426;10.300;2022-12-07T02:37:42;101136.91;;;3.63;100.00
63111;BME280;49201;53.426;10.300;2022-12-07T02:40:22;101140.97;;;3.60;100.00
63111;BME280;49201;53.426;10.300;2022-12-07T02:42:55;101131.78;;;3.62;100.00
63111;BME280;49201;53.426;10.300;2022-12-07T02:45:25;101139.06;;;3.56;100.00
63111;BME280;49201;53.426;10.300;2022-12-07T02:47:56;101137.06;;;3.50;100.00
63111;BME280;49201;53.426;10.300;2022-12-07T02:50:24;101132.66;;;3.46;100.00
63111;BME280;49201;53.426;10.300;2022-12-07T02:52:50;101147.69;;;3.43;100.00
63111;BME280;49201;53.426;10.300;2022-12-07T02:55:17;101141.66;;;3.41;100.00
63111;BME280;49201;53.426;10.300;2022-12-07T02:57:59;101138.91;;;3.37;100.00
63111;BME280;49201;53.426;10.300;2022-12-07T03:00:27;101138.91;;;3.37;100.00
63111;BME280;49201;53.426;10.300;2022-12-07T03:03:07;101145.59;;;3.36;100.00
63111;BME280;49201;53.426;10.300;2022-12-07T03:05:50;101137.78;;;3.32;100.00
63111;BME280;49201;53.426;10.300;2022-12-07T03:18:44;101150.13;;;3.42;100.00
63111;BME280;49201;53.426;10.300;2022-12-07T03:21:15;101151.00;;;3.42;100.00
63111;BME280;49201;53.426;10.300;2022-12-07T03:23:45;101148.41;;;3.41;100.00
63111;BME280;49201;53.426;10.300;2022-12-07T03:26:13;101146.50;;;3.37;100.00
63111;BME280;49201;53.426;10.300;2022-12-07T03:28:44;101140.53;;;3.36;100.00
63111;BME280;49201;53.426;10.300;2022-12-07T03:31:12;101139.53;;;3.33;100.00
63111;BME280;49201;53.426;10.300;2022-12-07T03:33:57;101146.19;;;3.31;100.00
63111;BME280;49201;53.426;10.300;2022-12-07T03:39:25;101134.94;;;3.26;100.00
63111;BME280;49201;53.426;10.300;2022-12-07T03:41:52;101145.13;;;3.27;100.00
63111;BME280;49201;53.426;10.300;2022-12-07T03:44:20;101137.22;;;3.21;100.00
63111;BME280;49201;53.426;10.300;2022-12-07T03:47:02;101137.31;;;3.23;100.00
63111;BME280;49201;53.426;10.300;2022-12-07T03:57:17;101141.97;;;3.15;100.00
63111;BME280;49201;53.426;10.300;2022-12-07T03:59:44;101145.13;;;3.11;100.00
63111;BME280;49201;53.426;10.300;2022-12-07T04:02:12;101142.50;;;3.10;100.00
63111;BME280;49201;53.426;10.300;2022-12-07T04:04:38;101144.63;;;3.02;100.00
63111;BME280;49201;53.426;10.300;2022-12-07T04:07:04;101142.88;;;3.01;100.00
63111;BME280;49201;53.426;10.300;2022-12-07T04:09:29;101155.19;;;2.95;100.00
63111;BME280;49201;53.426;10.300;2022-12-07T04:11:55;101148.38;;;2.94;100.00
63111;BME280;49201;53.426;10.300;2022-12-07T04:14:20;101149.88;;;2.91;100.00
63111;BME280;49201;53.426;10.300;2022-12-07T04:16:47;101148.94;;;2.89;100.00
63111;BME280;49201;53.426;10.300;2022-12-07T04:19:13;101160.78;;;2.90;100.00
63111;BME280;49201;53.426;10.300;2022-12-07T04:21:39;101159.81;;;2.88;100.00
63111;BME280;49201;53.426;10.300;2022-12-07T04:24:04;101160.63;;;2.87;100.00
63111;BME280;49201;53.426;10.300;2022-12-07T04:26:30;101165.59;;;2.85;100.00
63111;BME280;49201;53.426;10.300;2022-12-07T04:28:55;101175.59;;;2.84;100.00
63111;BME280;49201;53.426;10.300;2022-12-07T04:31:21;101175.78;;;2.87;100.00
63111;BME280;49201;53.426;10.300;2022-12-07T04:33:46;101171.44;;;2.84;100.00
63111;BME280;49201;53.426;10.300;2022-12-07T04:36:12;101166.13;;;2.80;100.00
63111;BME280;49201;53.426;10.300;2022-12-07T04:38:37;101170.31;;;2.79;100.00
63111;BME280;49201;53.426;10.300;2022-12-07T04:41:07;101162.56;;;2.76;100.00
63111;BME280;49201;53.426;10.300;2022-12-07T04:43:33;101169.28;;;2.76;100.00
63111;BME280;49201;53.426;10.300;2022-12-07T04:45:59;101165.78;;;2.74;100.00
63111;BME280;49201;53.426;10.300;2022-12-07T04:48:24;101168.16;;;2.71;100.00
63111;BME280;49201;53.426;10.300;2022-12-07T04:50:50;101166.25;;;2.67;100.00
63111;BME280;49201;53.426;10.300;2022-12-07T04:53:16;101168.78;;;2.67;100.00
63111;BME280;49201;53.426;10.300;2022-12-07T04:55:42;101160.16;;;2.63;100.00
63111;BME280;49201;53.426;10.300;2022-12-07T04:58:07;101175.13;;;2.60;100.00
63111;BME280;49201;53.426;10.300;2022-12-07T05:00:32;101176.63;;;2.57;100.00
63111;BME280;49201;53.426;10.300;2022-12-07T05:02:58;101171.50;;;2.55;100.00
63111;BME280;49201;53.426;10.300;2022-12-07T05:05:24;101172.88;;;2.50;100.00
63111;BME280;49201;53.426;10.300;2022-12-07T05:07:50;101179.50;;;2.48;100.00
63111;BME280;49201;53.426;10.300;2022-12-07T05:10:16;101170.09;;;2.46;100.00
63111;BME280;49201;53.426;10.300;2022-12-07T05:12:41;101174.91;;;2.41;100.00
63111;BME280;49201;53.426;10.300;2022-12-07T05:15:07;101174.00;;;2.41;100.00
63111;BME280;49201;53.426;10.300;2022-12-07T05:17:32;101169.75;;;2.40;100.00
63111;BME280;49201;53.426;10.300;2022-12-07T05:19:57;101170.34;;;2.36;100.00
63111;BME280;49201;53.426;10.300;2022-12-07T05:22:23;101174.28;;;2.31;100.00
63111;BME280;49201;53.426;10.300;2022-12-07T05:24:54;101171.75;;;2.31;100.00
63111;BME280;49201;53.426;10.300;2022-12-07T05:27:19;101168.19;;;2.27;100.00
63111;BME280;49201;53.426;10.300;2022-12-07T05:29:45;101179.94;;;2.27;100.00
63111;BME280;49201;53.426;10.300;2022-12-07T05:32:10;101176.28;;;2.22;100.00
63111;BME280;49201;53.426;10.300;2022-12-07T05:34:35;101166.88;;;2.19;100.00
63111;BME280;49201;53.426;10.300;2022-12-07T05:37:01;101176.09;;;2.19;100.00
63111;BME280;49201;53.426;10.300;2022-12-07T05:39:26;101171.75;;;2.16;100.00
63111;BME280;49201;53.426;10.300;2022-12-07T05:41:52;101176.88;;;2.18;100.00
63111;BME280;49201;53.426;10.300;2022-12-07T05:44:36;101172.44;;;2.14;100.00
63111;BME280;49201;53.426;10.300;2022-12-07T05:47:01;101165.75;;;2.14;100.00
63111;BME280;49201;53.426;10.300;2022-12-07T05:49:27;101174.81;;;2.11;100.00
63111;BME280;49201;53.426;10.300;2022-12-07T05:51:52;101176.44;;;2.10;100.00
63111;BME280;49201;53.426;10.300;2022-12-07T05:54:17;101173.66;;;2.06;100.00
63111;BME280;49201;53.426;10.300;2022-12-07T05:56:43;101176.09;;;2.04;100.00
63111;BME280;49201;53.426;10.300;2022-12-07T05:59:09;101164.06;;;2.00;100.00
63111;BME280;49201;53.426;10.300;2022-12-07T06:02:03;101167.28;;;1.98;100.00
63111;BME280;49201;53.426;10.300;2022-12-07T06:04:32;101169.72;;;1.96;100.00
63111;BME280;49201;53.426;10.300;2022-12-07T06:06:58;101178.25;;;1.98;100.00
63111;BME280;49201;53.426;10.300;2022-12-07T06:09:25;101171.47;;;1.97;100.00
63111;BME280;49201;53.426;10.300;2022-12-07T06:11:51;101174.19;;;2.00;100.00
63111;BME280;49201;53.426;10.300;2022-12-07T06:14:35;101166.50;;;1.99;100.00
63111;BME280;49201;53.426;10.300;2022-12-07T06:17:01;101167.09;;;1.95;100.00
63111;BME280;49201;53.426;10.300;2022-12-07T06:19:27;101168.69;;;1.93;100.00
63111;BME280;49201;53.426;10.300;2022-12-07T06:21:53;101171.13;;;1.91;100.00
63111;BME280;49201;53.426;10.300;2022-12-07T06:24:19;101171.81;;;1.89;100.00
63111;BME280;49201;53.426;10.300;2022-12-07T06:26:45;101169.09;;;1.86;100.00
63111;BME280;49201;53.426;10.300;2022-12-07T06:29:11;101180.88;;;1.85;100.00
63111;BME280;49201;53.426;10.300;2022-12-07T06:31:37;101171.53;;;1.84;100.00
63111;BME280;49201;53.426;10.300;2022-12-07T06:34:05;101173.88;;;1.81;100.00
63111;BME280;49201;53.426;10.300;2022-12-07T06:36:31;101167.16;;;1.82;100.00
63111;BME280;49201;53.426;10.300;2022-12-07T06:38:57;101167.25;;;1.83;100.00
63111;BME280;49201;53.426;10.300;2022-12-07T06:41:23;101167.25;;;1.83;100.00
63111;BME280;49201;53.426;10.300;2022-12-07T06:43:49;101164.59;;;1.80;100.00
63111;BME280;49201;53.426;10.300;2022-12-07T06:46:15;101172.66;;;1.75;100.00
63111;BME280;49201;53.426;10.300;2022-12-07T06:48:41;101166.47;;;1.70;100.00
63111;BME280;49201;53.426;10.300;2022-12-07T06:51:07;101168.88;;;1.68;100.00
63111;BME280;49201;53.426;10.300;2022-12-07T06:53:32;101164.78;;;1.70;100.00
63111;BME280;49201;53.426;10.300;2022-12-07T06:55:58;101172.19;;;1.67;100.00
63111;BME280;49201;53.426;10.300;2022-12-07T06:58:23;101174.88;;;1.70;100.00
63111;BME280;49201;53.426;10.300;2022-12-07T07:00:49;101168.28;;;1.72;100.00
63111;BME280;49201;53.426;10.300;2022-12-07T07:03:16;101166.63;;;1.73;100.00
63111;BME280;49201;53.426;10.300;2022-12-07T07:05:42;101165.88;;;1.74;100.00
63111;BME280;49201;53.426;10.300;2022-12-07T07:08:08;101172.56;;;1.73;100.00
63111;BME280;49201;53.426;10.300;2022-12-07T07:10:34;101171.78;;;1.74;100.00
63111;BME280;49201;53.426;10.300;2022-12-07T07:12:59;101170.38;;;1.79;100.00
63111;BME280;49201;53.426;10.300;2022-12-07T07:15:25;101175.63;;;1.82;100.00
63111;BME280;49201;53.426;10.300;2022-12-07T07:17:50;101174.16;;;1.86;100.00
63111;BME280;49201;53.426;10.300;2022-12-07T07:20:16;101185.13;;;1.86;100.00
63111;BME280;49201;53.426;10.300;2022-12-07T07:22:41;101172.00;;;1.92;100.00
63111;BME280;49201;53.426;10.300;2022-12-07T07:25:07;101173.53;;;1.90;100.00
63111;BME280;49201;53.426;10.300;2022-12-07T07:27:32;101175.38;;;1.92;100.00
63111;BME280;49201;53.426;10.300;2022-12-07T07:29:57;101181.47;;;1.96;100.00
63111;BME280;49201;53.426;10.300;2022-12-07T07:32:23;101173.28;;;2.00;100.00
63111;BME280;49201;53.426;10.300;2022-12-07T07:34:48;101172.44;;;1.99;100.00
63111;BME280;49201;53.426;10.300;2022-12-07T07:37:14;101170.06;;;2.02;100.00
63111;BME280;49201;53.426;10.300;2022-12-07T07:39:39;101175.41;;;2.07;100.00
63111;BME280;49201;53.426;10.300;2022-12-07T07:42:05;101173.66;;;2.06;100.00
63111;BME280;49201;53.426;10.300;2022-12-07T07:44:33;101182.38;;;2.11;100.00
63111;BME280;49201;53.426;10.300;2022-12-07T07:46:59;101172.09;;;2.37;100.00
63111;BME280;49201;53.426;10.300;2022-12-07T07:49:24;101185.41;;;2.34;100.00
63111;BME280;49201;53.426;10.300;2022-12-07T07:51:50;101183.59;;;2.32;100.00
63111;BME280;49201;53.426;10.300;2022-12-07T07:54:15;101189.44;;;2.31;100.00
63111;BME280;49201;53.426;10.300;2022-12-07T07:56:41;101190.31;;;2.31;100.00
63111;BME280;49201;53.426;10.300;2022-12-07T07:59:06;101191.16;;;2.32;100.00
63111;BME280;49201;53.426;10.300;2022-12-07T08:01:32;101195.72;;;2.37;100.00
63111;BME280;49201;53.426;10.300;2022-12-07T08:03:57;101195.91;;;2.40;100.00
63111;BME280;49201;53.426;10.300;2022-12-07T08:06:23;101195.09;;;2.41;100.00
63111;BME280;49201;53.426;10.300;2022-12-07T08:08:48;101193.53;;;2.43;100.00
63111;BME280;49201;53.426;10.300;2022-12-07T08:11:13;101200.41;;;2.46;100.00
63111;BME280;49201;53.426;10.300;2022-12-07T08:13:39;101191.19;;;2.46;100.00
63111;BME280;49201;53.426;10.300;2022-12-07T08:16:07;101192.91;;;2.47;100.00
63111;BME280;49201;53.426;10.300;2022-12-07T08:18:38;101198.91;;;2.49;100.00
63111;BME280;49201;53.426;10.300;2022-12-07T08:21:05;101193.09;;;2.50;100.00
63111;BME280;49201;53.426;10.300;2022-12-07T08:23:31;101195.78;;;2.53;100.00
63111;BME280;49201;53.426;10.300;2022-12-07T08:26:01;101196.06;;;2.58;100.00
63111;BME280;49201;53.426;10.300;2022-12-07T08:28:28;101193.16;;;2.66;100.00
63111;BME280;49201;53.426;10.300;2022-12-07T08:31:01;101190.81;;;2.69;100.00
63111;BME280;49201;53.426;10.300;2022-12-07T08:33:27;101190.97;;;2.72;100.00
63111;BME280;49201;53.426;10.300;2022-12-07T08:35:53;101192.88;;;2.76;100.00
63111;BME280;49201;53.426;10.300;2022-12-07T08:38:18;101198.81;;;2.77;100.00
63111;BME280;49201;53.426;10.300;2022-12-07T08:40:44;101191.47;;;2.81;100.00
63111;BME280;49201;53.426;10.300;2022-12-07T08:43:09;101187.63;;;2.88;100.00
63111;BME280;49201;53.426;10.300;2022-12-07T08:45:34;101187.09;;;2.93;100.00
63111;BME280;49201;53.426;10.300;2022-12-07T08:48:05;101187.34;;;2.98;100.00
63111;BME280;49201;53.426;10.300;2022-12-07T08:50:32;101189.25;;;3.02;100.00
63111;BME280;49201;53.426;10.300;2022-12-07T08:52:59;101195.44;;;3.07;100.00
63111;BME280;49201;53.426;10.300;2022-12-07T08:55:25;101192.47;;;3.14;100.00
63111;BME280;49201;53.426;10.300;2022-12-07T08:57:52;101187.63;;;3.18;100.00
63111;BME280;49201;53.426;10.300;2022-12-07T09:00:18;101194.69;;;3.24;100.00
63111;BME280;49201;53.426;10.300;2022-12-07T09:02:44;101191.63;;;3.29;100.00
63111;BME280;49201;53.426;10.300;2022-12-07T09:05:11;101196.22;;;3.36;100.00
63111;BME280;49201;53.426;10.300;2022-12-07T09:07:37;101201.00;;;3.46;100.00
63111;BME280;49201;53.426;10.300;2022-12-07T09:10:03;101196.47;;;3.57;100.00
63111;BME280;49201;53.426;10.300;2022-12-07T09:12:29;101196.63;;;3.76;100.00
63111;BME280;49201;53.426;10.300;2022-12-07T09:14:55;101190.63;;;3.90;100.00
63111;BME280;49201;53.426;10.300;2022-12-07T09:17:21;101190.38;;;4.01;100.00
63111;BME280;49201;53.426;10.300;2022-12-07T09:19:46;101182.31;;;4.08;100.00
63111;BME280;49201;53.426;10.300;2022-12-07T09:22:12;101183.84;;;4.22;100.00
63111;BME280;49201;53.426;10.300;2022-12-07T09:24:37;101179.81;;;4.26;100.00
63111;BME280;49201;53.426;10.300;2022-12-07T09:27:03;101179.47;;;4.36;99.90
63111;BME280;49201;53.426;10.300;2022-12-07T09:29:28;101181.44;;;4.41;99.49
63111;BME280;49201;53.426;10.300;2022-12-07T09:31:54;101172.53;;;4.49;99.49
63111;BME280;49201;53.426;10.300;2022-12-07T09:34:19;101182.81;;;4.52;99.19
63111;BME280;49201;53.426;10.300;2022-12-07T09:36:46;101168.56;;;4.54;99.14
63111;BME280;49201;53.426;10.300;2022-12-07T09:39:11;101183.94;;;4.57;98.93
63111;BME280;49201;53.426;10.300;2022-12-07T09:41:38;101182.69;;;4.49;98.79
63111;BME280;49201;53.426;10.300;2022-12-07T09:44:08;101181.16;;;4.70;98.78
63111;BME280;49201;53.426;10.300;2022-12-07T09:46:37;101178.13;;;4.77;98.58
63111;BME280;49201;53.426;10.300;2022-12-07T09:49:04;101180.94;;;4.83;98.57
63111;BME280;49201;53.426;10.300;2022-12-07T09:51:31;101180.75;;;4.79;98.95
63111;BME280;49201;53.426;10.300;2022-12-07T09:53:58;101176.16;;;4.54;98.50
63111;BME280;49201;53.426;10.300;2022-12-07T09:56:24;101178.19;;;4.44;98.94
63111;BME280;49201;53.426;10.300;2022-12-07T09:58:55;101178.25;;;4.45;99.09
63111;BME280;49201;53.426;10.300;2022-12-07T10:01:24;101175.56;;;4.42;99.18
63111;BME280;49201;53.426;10.300;2022-12-07T10:03:50;101178.25;;;4.45;98.72
63111;BME280;49201;53.426;10.300;2022-12-07T10:06:17;101166.66;;;4.50;99.33
63111;BME280;49201;53.426;10.300;2022-12-07T10:08:43;101173.78;;;4.57;98.89
63111;BME280;49201;53.426;10.300;2022-12-07T10:11:09;101171.25;;;4.57;99.14
63111;BME280;49201;53.426;10.300;2022-12-07T10:14:12;101171.69;;;4.66;98.61
63111;BME280;49201;53.426;10.300;2022-12-07T10:16:40;101163.22;;;4.66;98.36
63111;BME280;49201;53.426;10.300;2022-12-07T10:19:39;101166.63;;;4.66;98.38
63111;BME280;49201;53.426;10.300;2022-12-07T10:24:36;101171.25;;;4.57;97.94
63111;BME280;49201;53.426;10.300;2022-12-07T10:27:05;101167.28;;;4.62;97.86
63111;BME280;49201;53.426;10.300;2022-12-07T10:29:37;101165.06;;;4.52;97.89
63111;BME280;49201;53.426;10.300;2022-12-07T10:32:05;101160.00;;;4.52;97.96
63111;BME280;49201;53.426;10.300;2022-12-07T10:34:34;101155.25;;;4.58;98.00
63111;BME280;49201;53.426;10.300;2022-12-07T10:39:48;101161.41;;;4.63;97.49
63111;BME280;49201;53.426;10.300;2022-12-07T10:45:07;101154.06;;;4.87;95.75
63111;BME280;49201;53.426;10.300;2022-12-07T10:47:51;101149.38;;;4.94;95.13
63111;BME280;49201;53.426;10.300;2022-12-07T11:07:18;101147.78;;;5.52;91.49
63111;BME280;49201;53.426;10.300;2022-12-07T11:13:04;101128.81;;;8.75;78.35
63111;BME280;49201;53.426;10.300;2022-12-07T11:24:16;101121.69;;;8.39;73.59
63111;BME280;49201;53.426;10.300;2022-12-07T11:35:10;101133.06;;;6.22;84.10
63111;BME280;49201;53.426;10.300;2022-12-07T11:37:37;101132.72;;;5.94;83.93
63111;BME280;49201;53.426;10.300;2022-12-07T11:40:14;101126.53;;;5.88;85.71
63111;BME280;49201;53.426;10.300;2022-12-07T11:42:44;101131.59;;;5.69;86.64
63111;BME280;49201;53.426;10.300;2022-12-07T11:45:23;101132.25;;;5.65;87.51
63111;BME280;49201;53.426;10.300;2022-12-07T11:47:58;101133.94;;;5.45;88.18
63111;BME280;49201;53.426;10.300;2022-12-07T11:50:34;101129.38;;;5.57;89.30
63111;BME280;49201;53.426;10.300;2022-12-07T12:03:50;101109.69;;;5.52;89.10
63111;BME280;49201;53.426;10.300;2022-12-07T12:06:16;101115.44;;;5.48;88.68
63111;BME280;49201;53.426;10.300;2022-12-07T12:11:52;101110.34;;;5.48;88.81
63111;BME280;49201;53.426;10.300;2022-12-07T12:17:11;101107.75;;;5.65;89.53
63111;BME280;49201;53.426;10.300;2022-12-07T12:22:42;101099.63;;;5.93;87.66
63111;BME280;49201;53.426;10.300;2022-12-07T12:25:36;101098.03;;;5.95;87.22
63111;BME280;49201;53.426;10.300;2022-12-07T12:28:04;101094.00;;;6.00;86.28
63111;BME280;49201;53.426;10.300;2022-12-07T12:30:36;101095.97;;;6.07;86.11
63111;BME280;49201;53.426;10.300;2022-12-07T12:33:05;101097.31;;;6.18;85.42
63111;BME280;49201;53.426;10.300;2022-12-07T12:35:35;101095.75;;;6.01;84.38
63111;BME280;49201;53.426;10.300;2022-12-07T12:40:44;101089.47;;;5.93;85.03
63111;BME280;49201;53.426;10.300;2022-12-07T12:43:49;101093.34;;;6.04;84.77
63111;BME280;49201;53.426;10.300;2022-12-07T12:51:45;101079.53;;;6.60;81.76
63111;BME280;49201;53.426;10.300;2022-12-07T12:57:00;101079.38;;;7.70;76.26
63111;BME280;49201;53.426;10.300;2022-12-07T12:59:32;101077.22;;;8.06;74.98
63111;BME280;49201;53.426;10.300;2022-12-07T13:02:20;101079.56;;;8.51;71.46
63111;BME280;49201;53.426;10.300;2022-12-07T13:04:59;101072.09;;;8.85;71.51
63111;BME280;49201;53.426;10.300;2022-12-07T13:10:42;101077.97;;;8.28;70.96
63111;BME280;49201;53.426;10.300;2022-12-07T13:23:21;101069.59;;;8.07;73.06
63111;BME280;49201;53.426;10.300;2022-12-07T13:29:30;101073.00;;;8.33;72.51
63111;BME280;49201;53.426;10.300;2022-12-07T13:31:55;101071.25;;;8.85;71.05
63111;BME280;49201;53.426;10.300;2022-12-07T13:34:37;101074.66;;;8.31;72.18
63111;BME280;49201;53.426;10.300;2022-12-07T13:39:59;101082.19;;;7.07;74.51
63111;BME280;49201;53.426;10.300;2022-12-07T13:42:31;101081.28;;;6.41;76.57
63111;BME280;49201;53.426;10.300;2022-12-07T13:44:59;101097.59;;;6.05;77.61
63111;BME280;49201;53.426;10.300;2022-12-07T13:47:34;101093.38;;;5.85;79.48
63111;BME280;49201;53.426;10.300;2022-12-07T13:50:24;101099.44;;;5.69;80.33
63111;BME280;49201;53.426;10.300;2022-12-07T13:52:50;101091.69;;;5.66;81.85
63111;BME280;49201;53.426;10.300;2022-12-07T13:55:16;101104.94;;;5.59;82.17
63111;BME280;49201;53.426;10.300;2022-12-07T13:57:44;101101.53;;;5.59;83.38
63111;BME280;49201;53.426;10.300;2022-12-07T14:00:29;101102.94;;;5.52;83.94
63111;BME280;49201;53.426;10.300;2022-12-07T14:03:02;101104.13;;;5.60;83.27
63111;BME280;49201;53.426;10.300;2022-12-07T14:05:29;101106.00;;;5.64;83.58
63111;BME280;49201;53.426;10.300;2022-12-07T14:11:00;101111.34;;;5.51;82.35
63111;BME280;49201;53.426;10.300;2022-12-07T14:13:35;101102.66;;;5.46;82.62
63111;BME280;49201;53.426;10.300;2022-12-07T14:16:05;101110.28;;;5.27;82.04
63111;BME280;49201;53.426;10.300;2022-12-07T14:18:42;101103.66;;;5.12;82.99
63111;BME280;49201;53.426;10.300;2022-12-07T14:21:16;101101.16;;;4.94;80.09
63111;BME280;49201;53.426;10.300;2022-12-07T14:23:43;101109.31;;;5.06;78.77
63111;BME280;49201;53.426;10.300;2022-12-07T14:26:13;101100.94;;;4.90;77.24
63111;BME280;49201;53.426;10.300;2022-12-07T14:28:40;101098.97;;;4.84;77.25
63111;BME280;49201;53.426;10.300;2022-12-07T14:31:17;101098.56;;;4.75;76.77
63111;BME280;49201;53.426;10.300;2022-12-07T14:33:43;101093.47;;;4.75;76.86
63111;BME280;49201;53.426;10.300;2022-12-07T14:36:10;101096.63;;;4.70;78.38
63111;BME280;49201;53.426;10.300;2022-12-07T14:38:35;101097.03;;;4.61;77.73
63111;BME280;49201;53.426;10.300;2022-12-07T14:41:04;101101.63;;;4.51;77.17
63111;BME280;49201;53.426;10.300;2022-12-07T14:43:50;101104.81;;;4.47;77.07
63111;BME280;49201;53.426;10.300;2022-12-07T14:46:15;101106.34;;;4.43;77.95
63111;BME280;49201;53.426;10.300;2022-12-07T14:48:41;101107.47;;;4.32;77.93
63111;BME280;49201;53.426;10.300;2022-12-07T14:51:08;101112.81;;;4.21;77.32
63111;BME280;49201;53.426;10.300;2022-12-07T14:53:40;101108.75;;;4.07;77.16
63111;BME280;49201;53.426;10.300;2022-12-07T14:56:07;101112.72;;;4.02;76.79
63111;BME280;49201;53.426;10.300;2022-12-07T14:58:32;101108.94;;;3.94;77.60
63111;BME280;49201;53.426;10.300;2022-12-07T15:00:58;101115.16;;;3.83;78.37
63111;BME280;49201;53.426;10.300;2022-12-07T15:03:24;101112.88;;;3.71;78.68
63111;BME280;49201;53.426;10.300;2022-12-07T15:05:49;101118.47;;;3.66;77.59